Pancevo, Serbia
Current Conditions -  °F | °C
As of 1:30 PM on Friday 24 Oct 2014 (Local Time) from LYBE Reporting Station
Scattered Clouds Scattered Clouds  
Wind Chill: 13°   Ceiling: Unl
Heat Index: 13°   Visibility: 6mi
Dew Point:   Wind: 8mph
Humidity: 54%   Direction: 120°ESE
Pressure: 29.97"   Gusts: NA
Location:  44.87°N, 20.66°E
Report Text: LYBE 241130Z 12007KT 080V150 9999 SCT040 13/04 Q1015 NOSIG
Loading
Personal Weather Stations






























Interactive Weather Map
Tropical Storm Tracking
New forecast layout! Learn more

10-Day Weather Forecast

Advertisements
Track Severe Weather on mobile